createdAt,value
2019-02-05T00:00:28.353Z,12.90
2019-02-05T00:02:55.502Z,12.13
2019-02-05T00:05:22.041Z,12.80
2019-02-05T00:07:48.571Z,12.63
2019-02-05T00:10:15.413Z,12.07
2019-02-05T00:12:41.948Z,11.97
2019-02-05T00:15:08.791Z,12.03
2019-02-05T00:17:35.633Z,11.40
2019-02-05T00:20:02.474Z,11.10
2019-02-05T00:22:29.314Z,10.43
2019-02-05T00:24:55.855Z,11.40
2019-02-05T00:27:22.383Z,11.90
2019-02-05T00:29:49.225Z,11.03
2019-02-05T00:32:15.767Z,10.83
2019-02-05T00:34:42.600Z,10.87
2019-02-05T00:37:09.137Z,11.03
2019-02-05T00:39:36.286Z,11.57
2019-02-05T00:42:02.738Z,10.17
2019-02-05T00:44:29.354Z,10.50
2019-02-05T00:46:56.199Z,9.77
2019-02-05T00:49:22.730Z,9.63
2019-02-05T00:51:49.266Z,10.23
2019-02-05T00:54:16.110Z,9.97
2019-02-05T00:56:42.639Z,9.90
2019-02-05T00:59:09.789Z,9.33
2019-02-05T01:01:36.633Z,9.73
2019-02-05T01:04:03.174Z,10.13
2019-02-05T01:06:30.010Z,9.97
2019-02-05T01:08:56.542Z,9.93
2019-02-05T01:11:23.385Z,10.43
2019-02-05T01:13:49.919Z,9.33
2019-02-05T01:16:17.071Z,9.70
2019-02-05T01:18:43.601Z,8.97
2019-02-05T01:21:10.445Z,10.17
2019-02-05T01:23:37.286Z,9.70
2019-02-05T01:26:03.821Z,9.47
2019-02-05T01:28:30.356Z,9.27
2019-02-05T01:30:56.887Z,9.07
2019-02-05T01:33:23.729Z,9.67
2019-02-05T01:35:50.878Z,9.33
2019-02-05T01:38:17.722Z,10.03
2019-02-05T01:40:44.255Z,9.77
2019-02-05T01:43:10.788Z,9.43
2019-02-05T01:45:37.322Z,8.97
2019-02-05T01:48:04.165Z,9.37
2019-02-05T01:50:30.702Z,8.57
2019-02-05T01:52:57.233Z,9.53
2019-02-05T01:55:23.770Z,8.90
2019-02-05T01:57:50.306Z,9.50
2019-02-05T02:00:17.159Z,9.27
2019-02-05T02:02:43.685Z,9.10
2019-02-05T02:05:10.213Z,9.37
2019-02-05T02:07:36.748Z,8.60
2019-02-05T02:10:03.589Z,9.10
2019-02-05T02:12:30.738Z,8.83
2019-02-05T02:14:57.275Z,8.30
2019-02-05T02:17:23.807Z,8.87
2019-02-05T02:19:50.649Z,8.20
2019-02-05T02:22:17.798Z,8.87
2019-02-05T02:24:44.582Z,7.57
2019-02-05T02:27:11.173Z,7.50
2019-02-05T02:29:37.713Z,7.80
2019-02-05T02:32:04.858Z,7.47
2019-02-05T02:34:31.393Z,7.23
2019-02-05T02:36:58.234Z,7.30
2019-02-05T02:39:24.779Z,7.90
2019-02-05T02:41:51.308Z,6.60
2019-02-05T02:44:17.841Z,7.03
2019-02-05T02:46:44.374Z,6.60
2019-02-05T02:49:10.906Z,7.20
2019-02-05T02:51:37.751Z,6.73
2019-02-05T02:54:04.289Z,6.43
2019-02-05T02:56:30.822Z,7.33
2019-02-05T02:58:57.352Z,6.80
2019-02-05T03:01:24.192Z,6.27
2019-02-05T03:03:50.728Z,6.60
2019-02-05T03:06:17.266Z,6.37
2019-02-05T03:08:44.122Z,6.60
2019-02-05T03:11:11.254Z,6.20
2019-02-05T03:13:38.094Z,6.20
2019-02-05T03:16:04.631Z,6.13
2019-02-05T03:18:31.221Z,7.07
2019-02-05T03:20:58.004Z,6.47
2019-02-05T03:23:24.572Z,6.87
2019-02-05T03:25:51.690Z,6.37
2019-02-05T03:28:18.226Z,6.23
2019-02-05T03:30:44.768Z,6.47
2019-02-05T03:33:11.292Z,6.47
2019-02-05T03:35:38.443Z,6.23
2019-02-05T03:38:05.286Z,6.30
2019-02-05T03:40:31.818Z,6.00
2019-02-05T03:42:58.351Z,6.10
2019-02-05T03:45:24.886Z,7.30
2019-02-05T03:47:51.421Z,6.20
2019-02-05T03:50:17.954Z,6.70
2019-02-05T03:52:44.467Z,6.23
2019-02-05T03:55:11.026Z,5.90
2019-02-05T03:57:38.172Z,6.33
2019-02-05T04:00:04.709Z,6.27
2019-02-05T04:02:31.552Z,6.60
2019-02-05T04:04:58.088Z,6.00
2019-02-05T04:07:24.928Z,5.77
2019-02-05T04:09:51.458Z,5.80
2019-02-05T04:12:17.993Z,5.40
2019-02-05T04:14:44.621Z,5.47
2019-02-05T04:17:11.677Z,6.00
2019-02-05T04:19:38.185Z,5.90
2019-02-05T04:22:04.746Z,5.37
2019-02-05T04:24:31.587Z,5.57
2019-02-05T04:26:58.443Z,6.07
2019-02-05T04:29:25.286Z,6.47
2019-02-05T04:31:52.113Z,6.13
2019-02-05T04:34:18.726Z,5.33
2019-02-05T04:36:45.489Z,5.90
2019-02-05T04:39:12.617Z,5.90
2019-02-05T04:41:39.170Z,5.53
2019-02-05T04:44:06.016Z,5.57
2019-02-05T04:46:32.559Z,6.37
2019-02-05T04:48:59.086Z,5.20
2019-02-05T04:51:25.927Z,5.77
2019-02-05T04:53:52.458Z,5.60
2019-02-05T04:56:18.993Z,5.60
2019-02-05T04:58:45.530Z,5.53
2019-02-05T05:01:12.369Z,5.00
2019-02-05T05:03:39.217Z,5.50
2019-02-05T05:06:06.058Z,5.17
2019-02-05T05:08:32.595Z,5.30
2019-02-05T05:10:59.121Z,6.20
2019-02-05T05:13:25.966Z,5.60
2019-02-05T05:15:53.434Z,5.13
2019-02-05T05:18:19.954Z,5.40
2019-02-05T05:20:46.476Z,5.63
2019-02-05T05:23:13.022Z,5.30
2019-02-05T05:25:39.557Z,4.77
2019-02-05T05:28:10.231Z,4.40
2019-02-05T05:30:34.472Z,5.13
2019-02-05T05:33:01.004Z,5.00
2019-02-05T05:35:39.108Z,4.40
2019-02-05T05:37:55.915Z,6.97
2019-02-05T05:40:22.758Z,15.10
2019-02-05T05:42:49.299Z,16.53
2019-02-05T05:45:15.828Z,15.80
2019-02-05T05:47:42.367Z,14.27
2019-02-05T05:50:08.894Z,16.07
2019-02-05T05:52:35.738Z,16.70
2019-02-05T05:55:02.580Z,15.10
2019-02-05T05:57:29.421Z,14.37
2019-02-05T05:59:56.069Z,13.70
2019-02-05T06:02:22.796Z,26.13
2019-02-05T06:04:49.643Z,22.50
2019-02-05T06:07:16.173Z,21.27
2019-02-05T06:09:43.014Z,20.23
2019-02-05T06:12:09.858Z,18.40
2019-02-05T06:14:36.390Z,18.27
2019-02-05T06:17:03.545Z,18.13
2019-02-05T06:19:30.076Z,17.00
2019-02-05T06:21:56.915Z,19.40
2019-02-05T06:24:23.453Z,16.57
2019-02-05T06:26:49.986Z,15.73
2019-02-05T06:29:16.828Z,16.00
2019-02-05T06:31:43.368Z,15.93
2019-02-05T06:34:09.899Z,15.70
2019-02-05T06:36:36.737Z,15.87
2019-02-05T06:39:03.581Z,13.73
2019-02-05T06:41:30.430Z,19.03
2019-02-05T06:43:56.958Z,16.50
2019-02-05T06:46:23.490Z,15.17
2019-02-05T06:48:50.024Z,16.17
2019-02-05T06:51:16.562Z,16.87
2019-02-05T06:53:43.402Z,13.83
2019-02-05T06:56:09.936Z,14.47
2019-02-05T06:58:46.005Z,14.47
2019-02-05T07:01:05.660Z,14.50
2019-02-05T07:03:32.487Z,13.10
2019-02-05T07:05:59.480Z,12.17
2019-02-05T07:08:26.295Z,13.13
2019-02-05T07:10:52.830Z,12.83
2019-02-05T07:13:19.672Z,12.27
2019-02-05T07:15:46.205Z,12.37
2019-02-05T07:18:13.355Z,12.83
2019-02-05T07:20:39.887Z,10.57
2019-02-05T07:23:06.420Z,10.97
2019-02-05T07:25:33.265Z,12.47
2019-02-05T07:27:59.836Z,11.57
2019-02-05T07:30:26.644Z,11.10
2019-02-05T07:32:53.481Z,11.37
2019-02-05T07:35:20.017Z,12.23
2019-02-05T07:37:46.550Z,12.23
2019-02-05T07:40:13.698Z,10.40
2019-02-05T07:42:40.837Z,11.23
2019-02-05T07:45:07.689Z,10.53
2019-02-05T07:47:34.531Z,10.90
2019-02-05T07:50:01.378Z,10.53
2019-02-05T07:52:27.906Z,10.40
2019-02-05T07:54:54.749Z,9.93
2019-02-05T07:57:21.315Z,10.03
2019-02-05T07:59:48.110Z,10.90
2019-02-05T08:02:14.700Z,10.00
2019-02-05T08:04:41.810Z,9.70
2019-02-05T08:07:08.650Z,9.23
2019-02-05T08:09:35.184Z,8.53
2019-02-05T08:12:01.736Z,9.67
2019-02-05T08:14:28.562Z,9.20
2019-02-05T08:16:55.405Z,9.47
2019-02-05T08:19:22.244Z,9.50
2019-02-05T08:21:48.778Z,8.67
2019-02-05T08:24:15.315Z,9.00
2019-02-05T08:26:41.847Z,9.13
2019-02-05T08:29:09.001Z,9.47
2019-02-05T08:31:35.839Z,8.83
2019-02-05T08:34:03.366Z,8.13
2019-02-05T08:36:30.136Z,8.83
2019-02-05T08:38:56.670Z,8.27
2019-02-05T08:41:23.511Z,8.10
2019-02-05T08:43:50.353Z,8.10
2019-02-05T08:46:16.892Z,7.73
2019-02-05T08:48:43.732Z,8.23
2019-02-05T08:51:10.878Z,7.90
2019-02-05T08:53:37.414Z,7.43
2019-02-05T08:56:04.261Z,7.07
2019-02-05T08:58:31.472Z,7.57
2019-02-05T09:00:58.251Z,7.87
2019-02-05T09:03:25.091Z,7.13
2019-02-05T09:05:51.622Z,7.57
2019-02-05T09:08:18.465Z,7.57
2019-02-05T09:10:45.007Z,7.20
2019-02-05T09:13:12.149Z,6.87
2019-02-05T09:15:38.988Z,6.90
2019-02-05T09:18:05.522Z,7.10
2019-02-05T09:20:32.365Z,7.43
2019-02-05T09:22:59.212Z,7.47
2019-02-05T09:25:25.741Z,8.07
2019-02-05T09:27:52.581Z,7.30
2019-02-05T09:30:19.094Z,7.00
2019-02-05T09:32:46.572Z,6.87
2019-02-05T09:35:13.413Z,6.90
2019-02-05T09:37:39.958Z,6.97
2019-02-05T09:40:06.486Z,7.27
2019-02-05T09:42:33.330Z,6.73
2019-02-05T09:45:00.225Z,6.73
2019-02-05T09:47:27.008Z,6.47
2019-02-05T09:49:53.550Z,6.40
2019-02-05T09:52:20.384Z,7.10
2019-02-05T09:54:47.531Z,6.93
2019-02-05T09:57:14.374Z,6.50
2019-02-05T09:59:45.484Z,7.00
2019-02-05T10:02:09.290Z,7.20
2019-02-05T10:04:35.823Z,6.93
2019-02-05T10:07:02.355Z,6.43
2019-02-05T10:09:29.197Z,7.10
2019-02-05T10:11:55.730Z,6.63
2019-02-05T10:14:22.573Z,6.80
2019-02-05T10:16:49.730Z,6.00
2019-02-05T10:19:16.260Z,6.40
2019-02-05T10:21:43.097Z,6.50
2019-02-05T10:24:09.631Z,5.80
2019-02-05T10:26:36.166Z,6.40
2019-02-05T10:29:03.008Z,6.47
2019-02-05T10:31:29.543Z,5.93
2019-02-05T10:33:56.385Z,6.50
2019-02-05T10:36:22.919Z,6.53
2019-02-05T10:38:50.071Z,6.53
2019-02-05T10:41:16.709Z,5.90
2019-02-05T10:43:43.446Z,6.40
2019-02-05T10:46:10.285Z,6.53
2019-02-05T10:48:36.825Z,6.37
2019-02-05T10:51:03.356Z,6.37
2019-02-05T10:53:29.888Z,5.60
2019-02-05T10:55:56.730Z,5.83
2019-02-05T10:58:23.866Z,5.63
2019-02-05T11:00:50.720Z,6.67
2019-02-05T11:03:17.263Z,6.30
2019-02-05T11:05:44.099Z,6.30
2019-02-05T11:08:11.024Z,6.67
2019-02-05T11:10:37.780Z,6.50
2019-02-05T11:13:04.623Z,6.20
2019-02-05T11:15:31.463Z,6.30
2019-02-05T11:17:57.998Z,6.77
2019-02-05T11:20:24.839Z,6.20
2019-02-05T11:22:51.682Z,6.07
2019-02-05T11:25:18.215Z,6.60
2019-02-05T11:27:45.932Z,6.67
2019-02-05T11:30:19.940Z,6.17
2019-02-05T11:32:41.198Z,6.50
2019-02-05T11:35:07.733Z,6.93
2019-02-05T11:37:34.268Z,6.10
2019-02-05T11:40:00.803Z,6.30
2019-02-05T11:42:27.643Z,6.20
2019-02-05T11:44:54.488Z,5.47
2019-02-05T11:47:21.020Z,5.77
2019-02-05T11:49:47.555Z,4.93
2019-02-05T11:52:14.096Z,6.10
2019-02-05T11:54:40.932Z,5.53
2019-02-05T11:57:07.464Z,6.13
2019-02-05T11:59:34.004Z,6.63
2019-02-05T12:02:00.533Z,5.97
2019-02-05T12:04:27.388Z,5.07
2019-02-05T12:06:54.217Z,6.50
2019-02-05T12:09:21.064Z,5.73
2019-02-05T12:11:47.592Z,6.00
2019-02-05T12:14:14.131Z,5.87
2019-02-05T12:16:40.662Z,7.03
2019-02-05T12:19:07.213Z,5.87
2019-02-05T12:21:34.039Z,6.13
2019-02-05T12:24:00.579Z,6.37
2019-02-05T12:26:28.038Z,6.23
2019-02-05T12:28:54.878Z,7.30
2019-02-05T12:31:21.407Z,5.90
2019-02-05T12:33:48.244Z,5.77
2019-02-05T12:36:14.783Z,6.00
2019-02-05T12:38:41.314Z,6.07
2019-02-05T12:41:07.850Z,5.97
2019-02-05T12:43:34.385Z,5.60
2019-02-05T12:46:00.920Z,6.10
2019-02-05T12:48:28.074Z,6.20
2019-02-05T12:50:54.910Z,6.27
2019-02-05T12:53:22.059Z,6.70
2019-02-05T12:55:48.591Z,6.90
2019-02-05T12:58:15.433Z,7.13
2019-02-05T13:00:42.020Z,7.03
2019-02-05T13:03:08.596Z,7.97
2019-02-05T13:05:35.344Z,8.00
2019-02-05T13:08:05.214Z,8.57
2019-02-05T13:10:30.568Z,10.67
2019-02-05T13:12:57.405Z,11.47
2019-02-05T13:15:23.940Z,12.90
2019-02-05T13:17:50.475Z,14.40
2019-02-05T13:20:17.603Z,15.90
2019-02-05T13:22:44.156Z,18.53
2019-02-05T13:25:11.305Z,20.20
2019-02-05T13:27:38.148Z,18.30
2019-02-05T13:30:04.687Z,18.97
2019-02-05T13:32:31.525Z,17.03
2019-02-05T13:34:58.368Z,17.13
2019-02-05T13:37:25.207Z,18.43
2019-02-05T13:39:51.741Z,18.67
2019-02-05T13:42:18.583Z,18.37
2019-02-05T13:44:45.732Z,18.73
2019-02-05T13:47:12.574Z,19.67
2019-02-05T13:49:39.415Z,17.87
2019-02-05T13:52:06.259Z,17.80
2019-02-05T13:54:33.099Z,16.33
2019-02-05T13:56:59.939Z,15.80
2019-02-05T13:59:26.474Z,16.70
2019-02-05T14:01:53.318Z,17.77
2019-02-05T14:04:20.138Z,16.10
2019-02-05T14:06:50.104Z,16.27
2019-02-05T14:09:14.950Z,15.73
2019-02-05T14:11:41.603Z,14.80
2019-02-05T14:14:08.142Z,13.87
2019-02-05T14:16:34.980Z,14.03
2019-02-05T14:19:01.823Z,13.73
2019-02-05T14:21:28.663Z,14.30
2019-02-05T14:23:55.504Z,14.50
2019-02-05T14:26:22.351Z,13.53
2019-02-05T14:28:48.868Z,12.53
2019-02-05T14:31:15.415Z,12.00
2019-02-05T14:33:42.272Z,13.20
2019-02-05T14:36:08.779Z,12.43
2019-02-05T14:38:35.634Z,12.97
2019-02-05T14:41:02.783Z,12.43
2019-02-05T14:43:29.316Z,13.17
2019-02-05T14:45:55.850Z,14.27
2019-02-05T14:48:22.698Z,13.93
2019-02-05T14:50:49.535Z,13.00
2019-02-05T14:53:16.074Z,12.93
2019-02-05T14:55:42.916Z,14.27
2019-02-05T14:58:09.551Z,13.87
2019-02-05T15:00:36.594Z,15.03
2019-02-05T15:03:03.435Z,14.63
2019-02-05T15:05:29.969Z,16.00
2019-02-05T15:07:56.812Z,16.80
2019-02-05T15:10:23.655Z,17.17
2019-02-05T15:12:50.197Z,18.00
2019-02-05T15:15:17.033Z,18.77
2019-02-05T15:17:43.875Z,17.30
2019-02-05T15:20:10.406Z,18.13
2019-02-05T15:22:36.939Z,19.73
2019-02-05T15:25:03.784Z,19.53
2019-02-05T15:27:30.329Z,19.43
2019-02-05T15:29:56.852Z,19.03
2019-02-05T15:32:23.692Z,18.67
2019-02-05T15:34:50.554Z,19.53
2019-02-05T15:37:17.683Z,20.27
2019-02-05T15:39:44.546Z,21.23
2019-02-05T15:42:11.392Z,20.43
2019-02-05T15:44:38.288Z,20.90
2019-02-05T15:47:05.067Z,21.27
2019-02-05T15:49:32.223Z,20.77
2019-02-05T15:51:59.372Z,20.90
2019-02-05T15:54:26.209Z,21.30
2019-02-05T15:56:53.056Z,21.67
2019-02-05T15:59:19.567Z,21.90
2019-02-05T16:01:46.406Z,20.07
2019-02-05T16:04:12.941Z,21.43
2019-02-05T16:06:39.785Z,21.50
2019-02-05T16:09:06.318Z,23.30
2019-02-05T16:11:32.852Z,23.03
2019-02-05T16:13:59.393Z,22.13
2019-02-05T16:16:26.227Z,23.70
2019-02-05T16:18:53.449Z,25.10
2019-02-05T16:21:20.222Z,24.27
2019-02-05T16:23:46.755Z,22.77
2019-02-05T16:26:13.595Z,22.97
2019-02-05T16:28:40.436Z,29.47
2019-02-05T16:31:07.588Z,28.33
2019-02-05T16:33:34.126Z,29.27
2019-02-05T16:36:00.654Z,27.83
2019-02-05T16:38:27.510Z,27.57
2019-02-05T16:40:54.339Z,26.00
2019-02-05T16:43:20.875Z,26.90
2019-02-05T16:45:47.714Z,26.00
2019-02-05T16:48:14.558Z,25.93
2019-02-05T16:50:41.398Z,26.57
2019-02-05T16:53:08.550Z,25.13
2019-02-05T16:55:35.390Z,28.70
2019-02-05T16:58:02.537Z,24.23
2019-02-05T17:00:29.259Z,24.80
2019-02-05T17:02:56.222Z,25.37
2019-02-05T17:05:23.157Z,23.33
2019-02-05T17:07:49.905Z,24.07
2019-02-05T17:10:16.744Z,24.17
2019-02-05T17:12:44.612Z,24.93
2019-02-05T17:15:11.361Z,23.17
2019-02-05T17:17:37.890Z,23.33
2019-02-05T17:20:04.419Z,23.30
2019-02-05T17:22:31.260Z,23.33
2019-02-05T17:24:57.804Z,25.10
2019-02-05T17:27:24.638Z,26.33
2019-02-05T17:29:51.479Z,20.43
2019-02-05T17:32:18.329Z,21.80
2019-02-05T17:34:45.165Z,26.03
2019-02-05T17:37:12.006Z,23.23
2019-02-05T17:39:38.852Z,24.93
2019-02-05T17:42:05.688Z,22.90
2019-02-05T17:44:32.222Z,24.57
2019-02-05T17:46:59.063Z,23.73
2019-02-05T17:49:25.598Z,25.33
2019-02-05T17:51:53.053Z,24.67
2019-02-05T17:54:19.608Z,26.83
2019-02-05T17:56:46.123Z,26.20
2019-02-05T17:59:12.967Z,26.63
2019-02-05T18:01:39.501Z,25.87
2019-02-05T18:04:06.339Z,24.50
2019-02-05T18:06:32.880Z,25.73
2019-02-05T18:08:59.413Z,25.77
2019-02-05T18:11:26.253Z,24.57
2019-02-05T18:13:54.018Z,25.83
2019-02-05T18:16:20.871Z,25.03
2019-02-05T18:18:47.389Z,24.87
2019-02-05T18:21:14.231Z,25.70
2019-02-05T18:23:41.074Z,25.47
2019-02-05T18:26:07.612Z,24.77
2019-02-05T18:28:34.756Z,25.47
2019-02-05T18:31:01.296Z,25.10
2019-02-05T18:33:27.832Z,25.07
2019-02-05T18:35:54.662Z,26.67
2019-02-05T18:38:21.203Z,23.93
2019-02-05T18:40:48.044Z,24.63
2019-02-05T18:43:14.885Z,24.30
2019-02-05T18:45:41.423Z,23.97
2019-02-05T18:48:08.567Z,23.73
2019-02-05T18:50:35.112Z,23.23
2019-02-05T18:53:01.944Z,24.77
2019-02-05T18:55:28.479Z,23.30
2019-02-05T18:57:55.319Z,24.37
2019-02-05T19:00:22.207Z,23.43
2019-02-05T19:02:49.004Z,22.47
2019-02-05T19:05:15.538Z,22.37
2019-02-05T19:07:42.701Z,22.83
2019-02-05T19:10:09.315Z,21.83
2019-02-05T19:12:36.064Z,22.43
2019-02-05T19:15:02.597Z,22.30
2019-02-05T19:17:29.445Z,23.20
2019-02-05T19:19:56.281Z,22.83
2019-02-05T19:22:22.814Z,21.80
2019-02-05T19:24:49.657Z,21.87
2019-02-05T19:27:16.502Z,20.93
2019-02-05T19:29:43.344Z,22.80
2019-02-05T19:32:09.877Z,22.10
2019-02-05T19:34:36.413Z,21.87
2019-02-05T19:37:03.251Z,21.17
2019-02-05T19:39:29.789Z,22.37
2019-02-05T19:41:56.328Z,20.67
2019-02-05T19:44:23.162Z,22.73
2019-02-05T19:46:49.706Z,19.60
2019-02-05T19:49:21.684Z,22.33
2019-02-05T19:51:45.223Z,18.90
2019-02-05T19:54:12.702Z,20.03
2019-02-05T19:56:39.214Z,20.37
2019-02-05T19:59:06.059Z,19.73
2019-02-05T20:01:32.900Z,21.27
2019-02-05T20:03:59.432Z,19.47
2019-02-05T20:06:25.966Z,19.87
2019-02-05T20:08:52.501Z,20.27
2019-02-05T20:11:19.342Z,18.67
2019-02-05T20:13:46.492Z,18.93
2019-02-05T20:16:13.332Z,20.03
2019-02-05T20:18:39.877Z,17.60
2019-02-05T20:21:06.401Z,19.80
2019-02-05T20:23:32.934Z,19.60
2019-02-05T20:26:00.087Z,19.13
2019-02-05T20:28:26.931Z,19.47
2019-02-05T20:30:54.074Z,19.50
2019-02-05T20:33:20.609Z,18.50
2019-02-05T20:35:47.147Z,18.97
2019-02-05T20:38:13.988Z,19.73
2019-02-05T20:40:40.557Z,18.73
2019-02-05T20:43:07.363Z,18.97
2019-02-05T20:45:34.230Z,18.47
2019-02-05T20:48:00.740Z,18.77
2019-02-05T20:50:27.847Z,18.80
2019-02-05T20:52:55.346Z,19.17
2019-02-05T20:55:22.788Z,18.57
2019-02-05T20:57:49.640Z,18.03
2019-02-05T21:00:16.481Z,18.37
2019-02-05T21:02:43.323Z,18.80
2019-02-05T21:05:09.864Z,17.97
2019-02-05T21:07:36.388Z,19.03
2019-02-05T21:10:03.008Z,18.63
2019-02-05T21:12:29.769Z,18.50
2019-02-05T21:14:56.616Z,17.83
2019-02-05T21:17:23.144Z,18.13
2019-02-05T21:19:50.007Z,18.47
2019-02-05T21:22:16.525Z,18.80
2019-02-05T21:24:43.067Z,18.13
2019-02-05T21:27:09.896Z,17.07
2019-02-05T21:29:36.431Z,17.60
2019-02-05T21:32:02.971Z,17.33
2019-02-05T21:34:30.115Z,17.60
2019-02-05T21:36:56.955Z,16.70
2019-02-05T21:39:23.797Z,16.53
2019-02-05T21:41:50.642Z,15.90
2019-02-05T21:44:17.173Z,17.50
2019-02-05T21:46:43.709Z,16.20
2019-02-05T21:49:10.549Z,16.10
2019-02-05T21:51:40.569Z,16.77
2019-02-05T21:54:05.462Z,15.13
2019-02-05T21:56:31.997Z,17.10
2019-02-05T21:58:58.538Z,16.57
2019-02-05T22:01:25.207Z,15.50
2019-02-05T22:03:52.218Z,15.80
2019-02-05T22:06:18.751Z,15.73
2019-02-05T22:08:45.899Z,16.03
2019-02-05T22:11:12.742Z,16.27
2019-02-05T22:13:39.584Z,15.30
2019-02-05T22:16:06.414Z,16.07
2019-02-05T22:18:33.267Z,15.20
2019-02-05T22:21:00.413Z,15.60
2019-02-05T22:23:26.948Z,15.93
2019-02-05T22:25:53.790Z,15.40
2019-02-05T22:28:20.715Z,16.30
2019-02-05T22:30:48.089Z,14.80
2019-02-05T22:33:14.624Z,15.83
2019-02-05T22:35:41.463Z,15.90
2019-02-05T22:38:08.304Z,15.17
2019-02-05T22:40:35.148Z,15.40
2019-02-05T22:43:02.297Z,15.83
2019-02-05T22:45:29.138Z,16.37
2019-02-05T22:47:55.592Z,16.03
2019-02-05T22:50:22.208Z,14.77
2019-02-05T22:52:49.047Z,13.70
2019-02-05T22:55:15.584Z,14.80
2019-02-05T22:57:42.424Z,15.87
2019-02-05T23:00:08.958Z,14.63
2019-02-05T23:02:38.955Z,15.40
2019-02-05T23:05:03.870Z,15.37
2019-02-05T23:07:30.736Z,15.20
2019-02-05T23:09:57.249Z,14.63
2019-02-05T23:12:24.395Z,15.47
2019-02-05T23:14:51.243Z,14.80
2019-02-05T23:17:18.078Z,15.03
2019-02-05T23:19:44.616Z,15.13
2019-02-05T23:22:11.457Z,15.77
2019-02-05T23:24:38.079Z,14.93
2019-02-05T23:27:04.832Z,16.00
2019-02-05T23:29:31.972Z,14.90
2019-02-05T23:31:58.843Z,14.43
2019-02-05T23:34:25.667Z,15.17
2019-02-05T23:36:52.505Z,14.17
2019-02-05T23:39:20.823Z,14.23
2019-02-05T23:41:47.417Z,13.40
2019-02-05T23:44:13.952Z,14.63
2019-02-05T23:46:40.491Z,14.67
2019-02-05T23:49:07.027Z,13.27
2019-02-05T23:51:34.169Z,13.33
2019-02-05T23:54:01.011Z,13.83
2019-02-05T23:56:27.555Z,12.90
2019-02-05T23:58:54.086Z,13.43
